Terminal Aerodrome Forecast
Issued by NWS Charleston, WV

Current Version | Previous Version | Text Only | Print | Product List | Glossary Off
Versions: 1 2 3 4 5 6 7 8 9 10 11 12 13 14 15 16 17 18 19 20 21 22 23 24

000
FTUS41 KRLX 300900 AAA
TAFCRW
TAF AMD
KCRW 300919Z 3009/3106 00000KT P6SM BKN045
      TEMPO 3010/3012 4SM BR SCT040
     FM301300 31004KT P6SM SCT045
     FM302200 00000KT P6SM SCT050
     FM310500 00000KT 6SM BR SCT060=

USA.gov is the U.S. government's official web portal to all federal, state and local government web resources and services.